Time,TemperatureF,DewpointF,PressureIn,WindDirection,WindDirectionDegrees,WindSpeedMPH,WindSpeedGustMPH,Humidity,HourlyPrecipIn,Conditions,Clouds,dailyrainin,SoftwareType,DateUTC
2013-03-05 00:02:00,30.0,23.0,-100.00,WSW,254,3.0,3.0,74,0.00,,,0.00,,2013-03-05 05:02:00,
2013-03-05 00:12:00,30.0,20.0,-100.00,West,263,2.0,3.0,68,0.00,,,0.00,,2013-03-05 05:12:00,
2013-03-05 00:22:00,30.0,20.0,-100.00,WSW,256,0.0,1.0,67,0.00,,,0.00,,2013-03-05 05:22:00,
2013-03-05 00:32:00,30.0,20.0,-100.00,WSW,256,0.0,1.0,67,0.00,,,0.00,,2013-03-05 05:32:00,
2013-03-05 00:42:00,30.0,20.0,-100.00,WSW,256,0.0,1.0,67,0.00,,,0.00,,2013-03-05 05:42:00,
2013-03-05 00:52:00,31.0,24.0,-100.00,WSW,254,2.0,2.0,74,0.00,,,0.00,,2013-03-05 05:52:00,
2013-03-05 01:01:00,31.0,24.0,-100.00,WSW,254,2.0,2.0,74,0.00,,,0.00,,2013-03-05 06:01:00,
2013-03-05 01:11:00,31.0,21.0,-100.00,West,263,1.0,2.0,66,0.00,,,0.00,,2013-03-05 06:11:00,
2013-03-05 01:22:00,31.0,21.0,-100.00,West,263,1.0,2.0,66,0.00,,,0.00,,2013-03-05 06:22:00,
2013-03-05 01:32:00,32.0,21.0,-100.00,SSW,203,0.0,1.0,65,0.00,,,0.00,,2013-03-05 06:32:00,
2013-03-05 01:42:00,32.0,21.0,-100.00,SSW,203,0.0,1.0,65,0.00,,,0.00,,2013-03-05 06:42:00,
2013-03-05 01:52:00,32.0,22.0,-100.00,West,264,2.0,3.0,67,0.00,,,0.00,,2013-03-05 06:52:00,
2013-03-05 02:01:00,32.0,22.0,-100.00,West,264,2.0,3.0,67,0.00,,,0.00,,2013-03-05 07:01:00,
2013-03-05 02:11:00,33.0,23.0,-100.00,West,261,1.0,2.0,68,0.00,,,0.00,,2013-03-05 07:11:00,
2013-03-05 02:22:00,33.0,23.0,-100.00,SSW,192,0.0,1.0,65,0.00,,,0.00,,2013-03-05 07:22:00,
2013-03-05 02:32:00,33.0,23.0,-100.00,SSW,192,0.0,1.0,65,0.00,,,0.00,,2013-03-05 07:32:00,
2013-03-05 02:42:00,33.0,23.0,-100.00,SSW,192,0.0,1.0,65,0.00,,,0.00,,2013-03-05 07:42:00,
2013-03-05 02:52:00,34.0,23.0,-100.00,West,261,1.0,2.0,64,0.00,,,0.00,,2013-03-05 07:52:00,
2013-03-05 03:02:00,34.0,24.0,-100.00,WSW,256,2.0,2.0,66,0.00,,,0.00,,2013-03-05 08:02:00,
2013-03-05 03:11:00,34.0,24.0,-100.00,WSW,256,2.0,2.0,66,0.00,,,0.00,,2013-03-05 08:11:00,
2013-03-05 03:21:00,34.0,24.0,-100.00,WSW,256,2.0,2.0,66,0.00,,,0.00,,2013-03-05 08:21:00,
2013-03-05 03:31:00,35.0,24.0,-100.00,West,260,1.0,2.0,66,0.00,,,0.00,,2013-03-05 08:31:00,
2013-03-05 03:41:00,35.0,24.0,-100.00,WSW,258,2.0,2.0,64,0.00,,,0.00,,2013-03-05 08:41:00,
2013-03-05 03:52:00,35.0,24.0,-100.00,WSW,258,2.0,2.0,64,0.00,,,0.00,,2013-03-05 08:52:00,
2013-03-05 04:01:00,35.0,24.0,-100.00,WSW,250,2.0,4.0,64,0.00,,,0.00,,2013-03-05 09:01:00,
2013-03-05 04:11:00,35.0,24.0,-100.00,WSW,250,2.0,4.0,64,0.00,,,0.00,,2013-03-05 09:11:00,
2013-03-05 04:21:00,35.0,24.0,-100.00,WSW,250,2.0,4.0,64,0.00,,,0.00,,2013-03-05 09:21:00,
2013-03-05 04:32:00,35.0,24.0,-100.00,NE,54,2.0,2.0,62,0.00,,,0.00,,2013-03-05 09:32:00,
2013-03-05 04:42:00,35.0,24.0,-100.00,NE,54,2.0,2.0,62,0.00,,,0.00,,2013-03-05 09:42:00,
2013-03-05 04:52:00,36.0,26.0,-100.00,ESE,121,1.0,2.0,68,0.00,,,0.00,,2013-03-05 09:52:00,
2013-03-05 05:01:00,36.0,26.0,-100.00,ESE,121,1.0,2.0,68,0.00,,,0.00,,2013-03-05 10:01:00,
2013-03-05 05:11:00,36.0,25.0,-100.00,SSE,161,1.0,1.0,63,0.00,,,0.00,,2013-03-05 10:11:00,
2013-03-05 05:22:00,36.0,25.0,-100.00,SSE,161,1.0,1.0,63,0.00,,,0.00,,2013-03-05 10:22:00,
2013-03-05 05:32:00,37.0,28.0,-100.00,ESE,114,2.0,4.0,69,0.01,,,0.00,,2013-03-05 10:32:00,
2013-03-05 05:42:00,37.0,28.0,-100.00,WNW,287,1.0,4.0,69,0.00,,,0.01,,2013-03-05 10:42:00,
2013-03-05 05:52:00,37.0,28.0,-100.00,WNW,287,1.0,4.0,69,0.00,,,0.01,,2013-03-05 10:52:00,
2013-03-05 06:02:00,37.0,26.0,-100.00,West,260,3.0,4.0,65,0.00,,,0.01,,2013-03-05 11:02:00,
2013-03-05 06:11:00,37.0,26.0,-100.00,West,260,3.0,4.0,65,0.00,,,0.01,,2013-03-05 11:11:00,
2013-03-05 06:22:00,37.0,25.0,-100.00,SW,223,2.0,3.0,62,0.00,,,0.01,,2013-03-05 11:22:00,
2013-03-05 06:32:00,37.0,25.0,-100.00,SW,223,2.0,3.0,62,0.00,,,0.01,,2013-03-05 11:32:00,
2013-03-05 06:42:00,37.0,26.0,-100.00,SE,131,0.0,1.0,63,0.00,,,0.01,,2013-03-05 11:42:00,
2013-03-05 06:52:00,37.0,26.0,-100.00,SE,131,0.0,1.0,63,0.00,,,0.01,,2013-03-05 11:52:00,
2013-03-05 07:02:00,37.0,27.0,-100.00,SSW,195,0.0,1.0,66,0.00,,,0.01,,2013-03-05 12:02:00,
2013-03-05 07:12:00,37.0,27.0,-100.00,SSW,195,0.0,1.0,66,0.00,,,0.01,,2013-03-05 12:12:00,
2013-03-05 07:22:00,37.0,27.0,-100.00,SSW,195,0.0,1.0,66,0.00,,,0.01,,2013-03-05 12:22:00,
2013-03-05 07:32:00,38.0,26.0,-100.00,West,278,0.0,0.0,63,0.00,,,0.01,,2013-03-05 12:32:00,
2013-03-05 07:42:00,38.0,27.0,-100.00,East,97,1.0,1.0,63,0.00,,,0.01,,2013-03-05 12:42:00,
2013-03-05 07:53:00,38.0,27.0,-100.00,East,97,1.0,1.0,63,0.00,,,0.01,,2013-03-05 12:53:00,
2013-03-05 08:02:00,38.0,27.0,-100.00,East,97,1.0,1.0,63,0.00,,,0.01,,2013-03-05 13:02:00,
2013-03-05 08:12:00,39.0,29.0,-100.00,ESE,110,1.0,2.0,67,0.00,,,0.01,,2013-03-05 13:12:00,
2013-03-05 08:22:00,39.0,29.0,-100.00,ESE,110,1.0,2.0,67,0.00,,,0.01,,2013-03-05 13:22:00,
2013-03-05 08:32:00,40.0,30.0,-100.00,SW,233,1.0,2.0,68,0.00,,,0.01,,2013-03-05 13:32:00,
2013-03-05 08:42:00,40.0,30.0,-100.00,SW,233,1.0,2.0,68,0.00,,,0.01,,2013-03-05 13:42:00,
2013-03-05 08:52:00,41.0,26.0,-100.00,ESE,110,1.0,2.0,54,0.00,,,0.01,,2013-03-05 13:52:00,
2013-03-05 09:02:00,41.0,26.0,-100.00,ESE,110,1.0,2.0,54,0.00,,,0.01,,2013-03-05 14:02:00,
2013-03-05 09:11:00,42.0,26.0,-100.00,ESE,114,1.0,2.0,53,0.00,,,0.01,,2013-03-05 14:11:00,
2013-03-05 09:22:00,42.0,26.0,-100.00,ESE,114,1.0,2.0,53,0.00,,,0.01,,2013-03-05 14:22:00,
2013-03-05 09:32:00,44.0,28.0,-100.00,ESE,114,2.0,3.0,55,0.00,,,0.01,,2013-03-05 14:32:00,
2013-03-05 09:42:00,44.0,28.0,-100.00,ESE,114,2.0,3.0,55,0.00,,,0.01,,2013-03-05 14:42:00,
2013-03-05 09:52:00,48.0,24.0,-100.00,ESE,119,4.0,6.0,38,0.00,,,0.01,,2013-03-05 14:52:00,
2013-03-05 10:02:00,45.0,22.0,-100.00,SSE,151,3.0,6.0,39,0.00,,,0.01,,2013-03-05 15:02:00,
2013-03-05 10:11:00,45.0,22.0,-100.00,SSE,151,3.0,6.0,39,0.00,,,0.01,,2013-03-05 15:11:00,
2013-03-05 10:22:00,46.0,21.0,-100.00,SE,127,3.0,5.0,36,0.00,,,0.01,,2013-03-05 15:22:00,
2013-03-05 10:32:00,46.0,21.0,-100.00,SE,127,3.0,5.0,36,0.00,,,0.01,,2013-03-05 15:32:00,
2013-03-05 10:42:00,46.0,21.0,-100.00,SE,127,3.0,5.0,36,0.00,,,0.01,,2013-03-05 15:42:00,
2013-03-05 10:52:00,47.0,25.0,-100.00,ESE,121,3.0,4.0,42,0.00,,,0.01,,2013-03-05 15:52:00,
2013-03-05 11:02:00,47.0,25.0,-100.00,ESE,121,3.0,4.0,42,0.00,,,0.01,,2013-03-05 16:02:00,
2013-03-05 11:11:00,53.0,23.0,-100.00,SSW,193,2.0,5.0,31,0.00,,,0.01,,2013-03-05 16:11:00,
2013-03-05 11:22:00,51.0,22.0,-100.00,SE,130,2.0,4.0,33,0.00,,,0.01,,2013-03-05 16:22:00,
2013-03-05 11:32:00,51.0,22.0,-100.00,SE,130,2.0,4.0,33,0.00,,,0.01,,2013-03-05 16:32:00,
2013-03-05 11:42:00,51.0,22.0,-100.00,SE,130,2.0,4.0,33,0.00,,,0.01,,2013-03-05 16:42:00,
2013-03-05 11:52:00,51.0,20.0,-100.00,South,189,1.0,3.0,29,0.00,,,0.01,,2013-03-05 16:52:00,
2013-03-05 12:01:00,51.0,20.0,-100.00,South,189,1.0,3.0,29,0.00,,,0.01,,2013-03-05 17:01:00,
2013-03-05 12:11:00,50.0,20.0,-100.00,ESE,106,2.0,4.0,31,0.00,,,0.01,,2013-03-05 17:11:00,
2013-03-05 12:22:00,50.0,20.0,-100.00,ESE,106,2.0,4.0,31,0.00,,,0.01,,2013-03-05 17:22:00,
2013-03-05 12:32:00,49.0,22.0,-100.00,SE,144,3.0,5.0,34,0.00,,,0.01,,2013-03-05 17:32:00,
2013-03-05 12:42:00,49.0,22.0,-100.00,SE,144,3.0,5.0,34,0.00,,,0.01,,2013-03-05 17:42:00,
2013-03-05 12:53:00,48.0,23.0,-100.00,SSE,150,2.0,4.0,36,0.00,,,0.01,,2013-03-05 17:53:00,
2013-03-05 13:02:00,48.0,29.0,-100.00,SSE,151,1.0,2.0,48,0.04,,,0.01,,2013-03-05 18:02:00,
2013-03-05 13:11:00,48.0,29.0,-100.00,SSE,151,1.0,2.0,48,0.04,,,0.01,,2013-03-05 18:11:00,
2013-03-05 13:22:00,48.0,29.0,-100.00,SSE,151,1.0,2.0,48,0.04,,,0.01,,2013-03-05 18:22:00,
2013-03-05 13:32:00,47.0,27.0,-100.00,SSW,200,1.0,3.0,46,0.01,,,0.02,,2013-03-05 18:32:00,
2013-03-05 13:42:00,47.0,27.0,-100.00,SSW,200,1.0,3.0,46,0.01,,,0.02,,2013-03-05 18:42:00,
2013-03-05 13:53:00,46.0,32.0,-100.00,SSE,167,1.0,3.0,58,0.07,,,0.04,,2013-03-05 18:53:00,
2013-03-05 14:01:00,46.0,32.0,-100.00,SSE,167,1.0,3.0,58,0.07,,,0.04,,2013-03-05 19:01:00,
2013-03-05 14:11:00,45.0,38.0,-100.00,SSW,199,0.0,1.0,77,0.07,,,0.09,,2013-03-05 19:11:00,
2013-03-05 14:22:00,45.0,38.0,-100.00,SSW,199,0.0,1.0,77,0.07,,,0.09,,2013-03-05 19:22:00,
2013-03-05 14:32:00,44.0,40.0,-100.00,SSW,193,0.0,1.0,85,0.07,,,0.15,,2013-03-05 19:32:00,
2013-03-05 14:42:00,44.0,40.0,-100.00,SSW,193,0.0,1.0,85,0.07,,,0.15,,2013-03-05 19:42:00,
2013-03-05 14:52:00,43.0,40.0,-100.00,South,171,0.0,0.0,89,0.04,,,0.16,,2013-03-05 19:52:00,
2013-03-05 15:01:00,43.0,40.0,-100.00,SSE,160,1.0,2.0,90,0.06,,,0.19,,2013-03-05 20:01:00,
2013-03-05 15:11:00,43.0,40.0,-100.00,SSE,160,1.0,2.0,90,0.06,,,0.19,,2013-03-05 20:11:00,
2013-03-05 15:22:00,43.0,41.0,-100.00,SSW,206,1.0,2.0,92,0.00,,,0.20,,2013-03-05 20:22:00,
2013-03-05 15:32:00,43.0,41.0,-100.00,SSW,206,1.0,2.0,92,0.00,,,0.20,,2013-03-05 20:32:00,
2013-03-05 15:40:00,43.0,41.0,-100.00,SSE,162,1.0,2.0,93,0.00,,,0.20,,2013-03-05 20:40:00,
2013-03-05 15:42:00,43.0,41.0,-100.00,SSW,206,1.0,2.0,92,0.00,,,0.20,,2013-03-05 20:42:00,
2013-03-05 15:52:00,43.0,41.0,-100.00,WNW,295,0.0,0.0,92,0.00,,,0.20,,2013-03-05 20:52:00,
2013-03-05 16:02:00,43.0,41.0,-100.00,SSE,162,1.0,2.0,93,0.00,,,0.20,,2013-03-05 21:02:00,
2013-03-05 16:11:00,43.0,41.0,-100.00,SSE,162,1.0,2.0,93,0.00,,,0.20,,2013-03-05 21:11:00,
2013-03-05 16:22:00,43.0,41.0,-100.00,SSE,162,1.0,2.0,93,0.00,,,0.20,,2013-03-05 21:22:00,
2013-03-05 16:32:00,43.0,41.0,-100.00,SSE,162,1.0,2.0,93,0.00,,,0.20,,2013-03-05 21:32:00,
2013-03-05 16:52:00,43.0,41.0,-100.00,South,188,1.0,2.0,94,0.01,,,0.23,,2013-03-05 21:52:00,
2013-03-05 17:01:00,43.0,41.0,-100.00,SW,223,2.0,4.0,95,0.03,,,0.24,,2013-03-05 22:01:00,
2013-03-05 17:12:00,43.0,41.0,-100.00,SW,223,2.0,4.0,95,0.03,,,0.24,,2013-03-05 22:12:00,
2013-03-05 17:22:00,43.0,41.0,-100.00,SW,223,2.0,4.0,95,0.03,,,0.24,,2013-03-05 22:22:00,
2013-03-05 17:32:00,43.0,41.0,-100.00,SE,137,1.0,3.0,95,0.33,,,0.30,,2013-03-05 22:32:00,
2013-03-05 17:40:00,42.0,41.0,-100.00,ESE,121,2.0,3.0,96,0.17,,,0.48,,2013-03-05 22:40:00,
2013-03-05 17:42:00,43.0,41.0,-100.00,SE,137,1.0,3.0,95,0.33,,,0.30,,2013-03-05 22:42:00,
2013-03-05 17:52:00,43.0,41.0,-100.00,ESE,109,1.0,2.0,96,0.24,,,0.40,,2013-03-05 22:52:00,
2013-03-05 18:01:00,43.0,41.0,-100.00,ESE,109,1.0,2.0,96,0.24,,,0.40,,2013-03-05 23:01:00,
2013-03-05 18:11:00,42.0,41.0,-100.00,ESE,121,2.0,3.0,96,0.17,,,0.48,,2013-03-05 23:11:00,
2013-03-05 18:22:00,42.0,41.0,-100.00,ESE,121,2.0,3.0,96,0.17,,,0.48,,2013-03-05 23:22:00,
2013-03-05 18:32:00,42.0,41.0,-100.00,ESE,121,2.0,3.0,96,0.17,,,0.48,,2013-03-05 23:32:00,
2013-03-05 18:53:00,42.0,41.0,-100.00,SSE,167,2.0,5.0,97,0.01,,,0.52,,2013-03-05 23:53:00,
2013-03-05 19:02:00,42.0,41.0,-100.00,SSE,167,2.0,5.0,97,0.01,,,0.52,,2013-03-06 00:02:00,
2013-03-05 19:11:00,42.0,41.0,-100.00,SE,141,2.0,3.0,97,0.11,,,0.56,,2013-03-06 00:11:00,
2013-03-05 19:22:00,42.0,41.0,-100.00,SE,141,2.0,3.0,97,0.11,,,0.56,,2013-03-06 00:22:00,
2013-03-05 19:32:00,42.0,41.0,-100.00,SE,141,2.0,3.0,97,0.11,,,0.56,,2013-03-06 00:32:00,
2013-03-05 19:42:00,43.0,42.0,-100.00,SE,127,2.0,4.0,97,0.00,,,0.59,,2013-03-06 00:42:00,
2013-03-05 19:52:00,43.0,42.0,-100.00,SE,127,2.0,4.0,97,0.00,,,0.59,,2013-03-06 00:52:00,
2013-03-05 20:02:00,43.0,42.0,-100.00,SE,127,2.0,4.0,97,0.00,,,0.59,,2013-03-06 01:02:00,
2013-03-05 20:11:00,43.0,42.0,-100.00,SE,144,2.0,5.0,97,0.01,,,0.59,,2013-03-06 01:11:00,
2013-03-05 20:21:00,43.0,42.0,-100.00,SE,144,2.0,5.0,97,0.01,,,0.59,,2013-03-06 01:21:00,
2013-03-05 20:32:00,43.0,42.0,-100.00,SE,144,4.0,7.0,97,0.00,,,0.60,,2013-03-06 01:32:00,
2013-03-05 20:42:00,43.0,42.0,-100.00,SE,144,4.0,7.0,97,0.00,,,0.60,,2013-03-06 01:42:00,
2013-03-05 20:52:00,43.0,42.0,-100.00,SE,143,4.0,9.0,97,0.00,,,0.60,,2013-03-06 01:52:00,
2013-03-05 21:01:00,43.0,42.0,-100.00,SE,143,4.0,9.0,97,0.00,,,0.60,,2013-03-06 02:01:00,
2013-03-05 21:11:00,42.0,41.0,-100.00,SE,138,4.0,9.0,97,0.00,,,0.60,,2013-03-06 02:11:00,
2013-03-05 21:22:00,42.0,41.0,-100.00,SE,138,4.0,9.0,97,0.00,,,0.60,,2013-03-06 02:22:00,
2013-03-05 21:32:00,41.0,40.0,-100.00,SSE,157,5.0,9.0,97,0.01,,,0.61,,2013-03-06 02:32:00,
2013-03-05 21:42:00,41.0,40.0,-100.00,SSE,157,5.0,9.0,97,0.01,,,0.61,,2013-03-06 02:42:00,
2013-03-05 21:52:00,41.0,40.0,-100.00,SE,133,3.0,6.0,97,0.03,,,0.63,,2013-03-06 02:52:00,
2013-03-05 22:02:00,41.0,40.0,-100.00,SE,133,3.0,6.0,97,0.03,,,0.63,,2013-03-06 03:02:00,
2013-03-05 22:11:00,40.0,39.0,-100.00,SSE,147,4.0,7.0,96,0.01,,,0.63,,2013-03-06 03:11:00,
2013-03-05 22:22:00,40.0,39.0,-100.00,SE,133,4.0,10.0,96,0.04,,,0.64,,2013-03-06 03:22:00,
2013-03-05 22:32:00,40.0,39.0,-100.00,SE,133,4.0,10.0,96,0.04,,,0.64,,2013-03-06 03:32:00,
2013-03-05 22:42:00,40.0,39.0,-100.00,SE,133,4.0,10.0,96,0.04,,,0.64,,2013-03-06 03:42:00,
2013-03-05 22:53:00,39.0,38.0,-100.00,ESE,120,4.0,6.0,96,0.38,,,0.71,,2013-03-06 03:53:00,
2013-03-05 23:02:00,39.0,38.0,-100.00,ESE,120,4.0,6.0,96,0.38,,,0.71,,2013-03-06 04:02:00,
2013-03-05 23:11:00,38.0,37.0,-100.00,SE,137,5.0,11.0,96,0.24,,,0.81,,2013-03-06 04:11:00,
2013-03-05 23:22:00,38.0,37.0,-100.00,SE,137,5.0,11.0,96,0.24,,,0.81,,2013-03-06 04:22:00,
2013-03-05 23:32:00,38.0,37.0,-100.00,SE,131,4.0,9.0,97,0.00,,,0.86,,2013-03-06 04:32:00,
2013-03-05 23:42:00,38.0,37.0,-100.00,SE,131,4.0,9.0,97,0.00,,,0.86,,2013-03-06 04:42:00,
2013-03-05 23:52:00,38.0,37.0,-100.00,ESE,121,4.0,6.0,97,0.00,,,0.86,,2013-03-06 04:52:00,